sensor_id;sensor_type;location;lat;lon;timestamp;temperature;humidity
37906;DHT22;23739;51.448;6.674;2022-12-01T00:01:19;6.00;99.90
37906;DHT22;23739;51.448;6.674;2022-12-01T00:03:44;5.90;99.90
37906;DHT22;23739;51.448;6.674;2022-12-01T00:06:13;5.90;99.90
37906;DHT22;23739;51.448;6.674;2022-12-01T00:08:42;5.90;99.90
37906;DHT22;23739;51.448;6.674;2022-12-01T00:11:31;5.90;99.90
37906;DHT22;23739;51.448;6.674;2022-12-01T00:13:57;5.90;99.90
37906;DHT22;23739;51.448;6.674;2022-12-01T00:16:23;5.90;99.90
37906;DHT22;23739;51.448;6.674;2022-12-01T00:18:49;5.90;99.90
37906;DHT22;23739;51.448;6.674;2022-12-01T00:21:19;5.90;99.90
37906;DHT22;23739;51.448;6.674;2022-12-01T00:23:45;5.90;99.90
37906;DHT22;23739;51.448;6.674;2022-12-01T00:26:15;5.90;99.90
37906;DHT22;23739;51.448;6.674;2022-12-01T00:28:40;5.80;99.90
37906;DHT22;23739;51.448;6.674;2022-12-01T00:31:07;5.90;99.90
37906;DHT22;23739;51.448;6.674;2022-12-01T00:33:32;5.90;99.90
37906;DHT22;23739;51.448;6.674;2022-12-01T00:35:59;5.80;99.90
37906;DHT22;23739;51.448;6.674;2022-12-01T00:38:26;5.90;99.90
37906;DHT22;23739;51.448;6.674;2022-12-01T00:40:51;5.90;99.90
37906;DHT22;23739;51.448;6.674;2022-12-01T00:43:17;5.90;99.90
37906;DHT22;23739;51.448;6.674;2022-12-01T00:45:43;5.90;99.90
37906;DHT22;23739;51.448;6.674;2022-12-01T00:48:08;5.90;99.90
37906;DHT22;23739;51.448;6.674;2022-12-01T00:50:34;5.90;99.90
37906;DHT22;23739;51.448;6.674;2022-12-01T00:52:59;5.90;99.90
37906;DHT22;23739;51.448;6.674;2022-12-01T00:55:25;5.90;99.90
37906;DHT22;23739;51.448;6.674;2022-12-01T00:57:51;5.90;99.90
37906;DHT22;23739;51.448;6.674;2022-12-01T01:00:16;5.90;99.90
37906;DHT22;23739;51.448;6.674;2022-12-01T01:02:42;5.90;99.90
37906;DHT22;23739;51.448;6.674;2022-12-01T01:05:08;5.90;99.90
37906;DHT22;23739;51.448;6.674;2022-12-01T01:07:33;5.90;99.90
37906;DHT22;23739;51.448;6.674;2022-12-01T01:09:59;5.90;99.90
37906;DHT22;23739;51.448;6.674;2022-12-01T01:12:26;5.90;99.90
37906;DHT22;23739;51.448;6.674;2022-12-01T01:14:51;5.90;99.90
37906;DHT22;23739;51.448;6.674;2022-12-01T01:17:17;5.80;99.90
37906;DHT22;23739;51.448;6.674;2022-12-01T01:19:42;5.80;99.90
37906;DHT22;23739;51.448;6.674;2022-12-01T01:22:08;5.80;99.90
37906;DHT22;23739;51.448;6.674;2022-12-01T01:24:34;5.90;99.90
37906;DHT22;23739;51.448;6.674;2022-12-01T01:26:59;5.90;99.90
37906;DHT22;23739;51.448;6.674;2022-12-01T01:29:25;5.90;99.90
37906;DHT22;23739;51.448;6.674;2022-12-01T01:31:51;5.90;99.90
37906;DHT22;23739;51.448;6.674;2022-12-01T01:34:16;5.90;99.90
37906;DHT22;23739;51.448;6.674;2022-12-01T01:36:42;5.90;99.90
37906;DHT22;23739;51.448;6.674;2022-12-01T01:39:07;5.90;99.90
37906;DHT22;23739;51.448;6.674;2022-12-01T01:41:33;5.80;99.90
37906;DHT22;23739;51.448;6.674;2022-12-01T01:43:59;5.90;99.90
37906;DHT22;23739;51.448;6.674;2022-12-01T01:46:33;5.80;99.90
37906;DHT22;23739;51.448;6.674;2022-12-01T01:49:00;5.90;99.90
37906;DHT22;23739;51.448;6.674;2022-12-01T01:53:53;5.90;99.90
37906;DHT22;23739;51.448;6.674;2022-12-01T01:56:21;5.90;99.90
37906;DHT22;23739;51.448;6.674;2022-12-01T01:58:47;5.90;99.90
37906;DHT22;23739;51.448;6.674;2022-12-01T02:01:13;5.80;99.90
37906;DHT22;23739;51.448;6.674;2022-12-01T02:03:38;5.90;99.90
37906;DHT22;23739;51.448;6.674;2022-12-01T02:06:06;5.90;99.90
37906;DHT22;23739;51.448;6.674;2022-12-01T02:08:32;5.90;99.90
37906;DHT22;23739;51.448;6.674;2022-12-01T02:16:11;5.90;99.90
37906;DHT22;23739;51.448;6.674;2022-12-01T02:23:59;5.90;99.90
37906;DHT22;23739;51.448;6.674;2022-12-01T02:29:03;5.90;99.90
37906;DHT22;23739;51.448;6.674;2022-12-01T02:34:24;5.90;99.90
37906;DHT22;23739;51.448;6.674;2022-12-01T02:36:48;5.90;99.90
37906;DHT22;23739;51.448;6.674;2022-12-01T02:39:34;5.90;99.90
37906;DHT22;23739;51.448;6.674;2022-12-01T02:42:22;5.90;99.90
37906;DHT22;23739;51.448;6.674;2022-12-01T02:45:09;5.90;99.90
37906;DHT22;23739;51.448;6.674;2022-12-01T02:47:35;6.00;99.90
37906;DHT22;23739;51.448;6.674;2022-12-01T02:50:02;6.00;99.90
37906;DHT22;23739;51.448;6.674;2022-12-01T02:52:28;5.90;99.90
37906;DHT22;23739;51.448;6.674;2022-12-01T02:54:54;5.90;99.90
37906;DHT22;23739;51.448;6.674;2022-12-01T02:57:20;5.90;99.90
37906;DHT22;23739;51.448;6.674;2022-12-01T02:59:47;5.90;99.90
37906;DHT22;23739;51.448;6.674;2022-12-01T03:02:25;5.90;99.90
37906;DHT22;23739;51.448;6.674;2022-12-01T03:07:28;5.90;99.90
37906;DHT22;23739;51.448;6.674;2022-12-01T03:10:07;5.90;99.90
37906;DHT22;23739;51.448;6.674;2022-12-01T03:17:48;5.90;99.90
37906;DHT22;23739;51.448;6.674;2022-12-01T03:20:17;5.90;99.90
37906;DHT22;23739;51.448;6.674;2022-12-01T03:22:46;5.90;99.90
37906;DHT22;23739;51.448;6.674;2022-12-01T03:25:14;5.90;99.90
37906;DHT22;23739;51.448;6.674;2022-12-01T03:27:40;5.90;99.90
37906;DHT22;23739;51.448;6.674;2022-12-01T03:30:06;5.90;99.90
37906;DHT22;23739;51.448;6.674;2022-12-01T03:35:13;5.80;99.90
37906;DHT22;23739;51.448;6.674;2022-12-01T03:37:41;5.80;99.90
37906;DHT22;23739;51.448;6.674;2022-12-01T03:40:09;5.90;99.90
37906;DHT22;23739;51.448;6.674;2022-12-01T03:42:46;5.90;99.90
37906;DHT22;23739;51.448;6.674;2022-12-01T03:45:16;5.80;99.90
37906;DHT22;23739;51.448;6.674;2022-12-01T03:47:44;5.90;99.90
37906;DHT22;23739;51.448;6.674;2022-12-01T03:50:10;5.90;99.90
37906;DHT22;23739;51.448;6.674;2022-12-01T03:58:00;5.80;99.90
37906;DHT22;23739;51.448;6.674;2022-12-01T04:00:27;5.80;99.90
37906;DHT22;23739;51.448;6.674;2022-12-01T04:02:56;5.80;99.90
37906;DHT22;23739;51.448;6.674;2022-12-01T04:05:23;5.80;99.90
37906;DHT22;23739;51.448;6.674;2022-12-01T04:07:48;5.80;99.90
37906;DHT22;23739;51.448;6.674;2022-12-01T04:10:14;5.80;99.90
37906;DHT22;23739;51.448;6.674;2022-12-01T04:12:40;5.80;99.90
37906;DHT22;23739;51.448;6.674;2022-12-01T04:15:06;5.90;99.90
37906;DHT22;23739;51.448;6.674;2022-12-01T04:17:32;5.90;99.90
37906;DHT22;23739;51.448;6.674;2022-12-01T04:19:58;5.90;99.90
37906;DHT22;23739;51.448;6.674;2022-12-01T04:22:24;5.90;99.90
37906;DHT22;23739;51.448;6.674;2022-12-01T04:24:50;5.80;99.90
37906;DHT22;23739;51.448;6.674;2022-12-01T04:27:16;5.80;99.90
37906;DHT22;23739;51.448;6.674;2022-12-01T04:29:41;5.80;99.90
37906;DHT22;23739;51.448;6.674;2022-12-01T04:32:07;5.80;99.90
37906;DHT22;23739;51.448;6.674;2022-12-01T04:34:33;5.80;99.90
37906;DHT22;23739;51.448;6.674;2022-12-01T04:36:58;5.80;99.90
37906;DHT22;23739;51.448;6.674;2022-12-01T04:39:24;5.80;99.90
37906;DHT22;23739;51.448;6.674;2022-12-01T04:41:50;5.80;99.90
37906;DHT22;23739;51.448;6.674;2022-12-01T04:44:15;5.90;99.90
37906;DHT22;23739;51.448;6.674;2022-12-01T04:46:41;5.80;99.90
37906;DHT22;23739;51.448;6.674;2022-12-01T04:49:07;5.80;99.90
37906;DHT22;23739;51.448;6.674;2022-12-01T04:51:33;5.80;99.90
37906;DHT22;23739;51.448;6.674;2022-12-01T04:53:59;5.80;99.90
37906;DHT22;23739;51.448;6.674;2022-12-01T04:56:25;5.80;99.90
37906;DHT22;23739;51.448;6.674;2022-12-01T04:58:51;5.80;99.90
37906;DHT22;23739;51.448;6.674;2022-12-01T05:01:17;5.80;99.90
37906;DHT22;23739;51.448;6.674;2022-12-01T05:03:43;5.80;99.90
37906;DHT22;23739;51.448;6.674;2022-12-01T05:06:10;5.80;99.90
37906;DHT22;23739;51.448;6.674;2022-12-01T05:08:36;5.80;99.90
37906;DHT22;23739;51.448;6.674;2022-12-01T05:11:02;5.70;99.90
37906;DHT22;23739;51.448;6.674;2022-12-01T05:13:29;5.70;99.90
37906;DHT22;23739;51.448;6.674;2022-12-01T05:16:03;5.70;99.90
37906;DHT22;23739;51.448;6.674;2022-12-01T05:18:29;5.70;99.90
37906;DHT22;23739;51.448;6.674;2022-12-01T05:20:55;5.80;99.90
37906;DHT22;23739;51.448;6.674;2022-12-01T05:23:27;5.80;99.90
37906;DHT22;23739;51.448;6.674;2022-12-01T05:25:53;5.80;99.90
37906;DHT22;23739;51.448;6.674;2022-12-01T05:28:19;5.80;99.90
37906;DHT22;23739;51.448;6.674;2022-12-01T05:30:45;5.70;99.90
37906;DHT22;23739;51.448;6.674;2022-12-01T05:33:10;5.70;99.90
37906;DHT22;23739;51.448;6.674;2022-12-01T05:35:36;5.70;99.90
37906;DHT22;23739;51.448;6.674;2022-12-01T05:38:02;5.70;99.90
37906;DHT22;23739;51.448;6.674;2022-12-01T05:40:28;5.70;99.90
37906;DHT22;23739;51.448;6.674;2022-12-01T05:42:55;5.70;99.90
37906;DHT22;23739;51.448;6.674;2022-12-01T05:45:21;5.70;99.90
37906;DHT22;23739;51.448;6.674;2022-12-01T05:47:46;5.70;99.90
37906;DHT22;23739;51.448;6.674;2022-12-01T05:50:12;5.70;99.90
37906;DHT22;23739;51.448;6.674;2022-12-01T05:52:37;5.70;99.90
37906;DHT22;23739;51.448;6.674;2022-12-01T05:55:03;5.70;99.90
37906;DHT22;23739;51.448;6.674;2022-12-01T05:57:30;5.70;99.90
37906;DHT22;23739;51.448;6.674;2022-12-01T05:59:56;5.70;99.90
37906;DHT22;23739;51.448;6.674;2022-12-01T06:02:21;5.70;99.90
37906;DHT22;23739;51.448;6.674;2022-12-01T06:04:47;5.70;99.90
37906;DHT22;23739;51.448;6.674;2022-12-01T06:07:12;5.70;99.90
37906;DHT22;23739;51.448;6.674;2022-12-01T06:09:38;5.70;99.90
37906;DHT22;23739;51.448;6.674;2022-12-01T06:12:04;5.70;99.90
37906;DHT22;23739;51.448;6.674;2022-12-01T06:14:29;5.70;99.90
37906;DHT22;23739;51.448;6.674;2022-12-01T06:16:55;5.70;99.90
37906;DHT22;23739;51.448;6.674;2022-12-01T06:19:20;5.70;99.90
37906;DHT22;23739;51.448;6.674;2022-12-01T06:21:46;5.70;99.90
37906;DHT22;23739;51.448;6.674;2022-12-01T06:24:12;5.70;99.90
37906;DHT22;23739;51.448;6.674;2022-12-01T06:26:37;5.70;99.90
37906;DHT22;23739;51.448;6.674;2022-12-01T06:29:03;5.70;99.90
37906;DHT22;23739;51.448;6.674;2022-12-01T06:31:28;5.70;99.90
37906;DHT22;23739;51.448;6.674;2022-12-01T06:33:54;5.70;99.90
37906;DHT22;23739;51.448;6.674;2022-12-01T06:36:19;5.70;99.90
37906;DHT22;23739;51.448;6.674;2022-12-01T06:38:45;5.80;99.90
37906;DHT22;23739;51.448;6.674;2022-12-01T06:41:11;5.70;99.90
37906;DHT22;23739;51.448;6.674;2022-12-01T06:43:36;5.80;99.90
37906;DHT22;23739;51.448;6.674;2022-12-01T06:46:02;5.70;99.90
37906;DHT22;23739;51.448;6.674;2022-12-01T06:48:29;5.70;99.90
37906;DHT22;23739;51.448;6.674;2022-12-01T06:50:58;5.70;99.90
37906;DHT22;23739;51.448;6.674;2022-12-01T06:53:24;5.70;99.90
37906;DHT22;23739;51.448;6.674;2022-12-01T06:55:51;5.70;99.90
37906;DHT22;23739;51.448;6.674;2022-12-01T06:58:17;5.70;99.90
37906;DHT22;23739;51.448;6.674;2022-12-01T07:00:42;5.70;99.90
37906;DHT22;23739;51.448;6.674;2022-12-01T07:03:08;5.80;99.90
37906;DHT22;23739;51.448;6.674;2022-12-01T07:05:34;5.70;99.90
37906;DHT22;23739;51.448;6.674;2022-12-01T07:07:59;5.80;99.90
37906;DHT22;23739;51.448;6.674;2022-12-01T07:10:25;5.70;99.90
37906;DHT22;23739;51.448;6.674;2022-12-01T07:12:53;5.80;99.90
37906;DHT22;23739;51.448;6.674;2022-12-01T07:15:19;5.80;99.90
37906;DHT22;23739;51.448;6.674;2022-12-01T07:17:45;5.80;99.90
37906;DHT22;23739;51.448;6.674;2022-12-01T07:20:11;5.80;99.90
37906;DHT22;23739;51.448;6.674;2022-12-01T07:22:36;5.80;99.90
37906;DHT22;23739;51.448;6.674;2022-12-01T07:25:03;5.80;99.90
37906;DHT22;23739;51.448;6.674;2022-12-01T07:27:30;5.80;99.90
37906;DHT22;23739;51.448;6.674;2022-12-01T07:29:55;5.80;99.90
37906;DHT22;23739;51.448;6.674;2022-12-01T07:32:21;5.80;99.90
37906;DHT22;23739;51.448;6.674;2022-12-01T07:34:46;5.80;99.90
37906;DHT22;23739;51.448;6.674;2022-12-01T07:37:12;5.80;99.90
37906;DHT22;23739;51.448;6.674;2022-12-01T07:39:38;5.80;99.90
37906;DHT22;23739;51.448;6.674;2022-12-01T07:42:03;5.70;99.90
37906;DHT22;23739;51.448;6.674;2022-12-01T07:44:29;5.80;99.90
37906;DHT22;23739;51.448;6.674;2022-12-01T07:46:55;5.80;99.90
37906;DHT22;23739;51.448;6.674;2022-12-01T07:49:20;5.80;99.90
37906;DHT22;23739;51.448;6.674;2022-12-01T07:51:46;5.80;99.90
37906;DHT22;23739;51.448;6.674;2022-12-01T07:54:12;5.80;99.90
37906;DHT22;23739;51.448;6.674;2022-12-01T07:56:39;5.80;99.90
37906;DHT22;23739;51.448;6.674;2022-12-01T07:59:04;5.80;99.90
37906;DHT22;23739;51.448;6.674;2022-12-01T08:01:30;5.80;99.90
37906;DHT22;23739;51.448;6.674;2022-12-01T08:03:56;5.80;99.90
37906;DHT22;23739;51.448;6.674;2022-12-01T08:06:22;5.80;99.90
37906;DHT22;23739;51.448;6.674;2022-12-01T08:08:49;5.70;99.90
37906;DHT22;23739;51.448;6.674;2022-12-01T08:11:24;5.70;99.90
37906;DHT22;23739;51.448;6.674;2022-12-01T08:13:51;5.70;99.90
37906;DHT22;23739;51.448;6.674;2022-12-01T08:16:18;5.80;99.90
37906;DHT22;23739;51.448;6.674;2022-12-01T08:18:43;5.80;99.90
37906;DHT22;23739;51.448;6.674;2022-12-01T08:21:10;5.80;99.90
37906;DHT22;23739;51.448;6.674;2022-12-01T08:23:36;5.70;99.90
37906;DHT22;23739;51.448;6.674;2022-12-01T08:26:02;5.70;99.90
37906;DHT22;23739;51.448;6.674;2022-12-01T08:28:29;5.70;99.90
37906;DHT22;23739;51.448;6.674;2022-12-01T08:30:55;5.80;99.90
37906;DHT22;23739;51.448;6.674;2022-12-01T08:33:21;5.80;99.90
37906;DHT22;23739;51.448;6.674;2022-12-01T08:35:46;5.80;99.90
37906;DHT22;23739;51.448;6.674;2022-12-01T08:38:12;5.80;99.90
37906;DHT22;23739;51.448;6.674;2022-12-01T08:40:37;5.80;99.90
37906;DHT22;23739;51.448;6.674;2022-12-01T08:43:03;5.80;99.90
37906;DHT22;23739;51.448;6.674;2022-12-01T08:45:29;5.80;99.90
37906;DHT22;23739;51.448;6.674;2022-12-01T08:47:55;5.90;99.90
37906;DHT22;23739;51.448;6.674;2022-12-01T08:50:25;5.90;99.90
37906;DHT22;23739;51.448;6.674;2022-12-01T08:52:51;5.90;99.90
37906;DHT22;23739;51.448;6.674;2022-12-01T08:55:17;5.90;99.90
37906;DHT22;23739;51.448;6.674;2022-12-01T08:57:43;5.90;99.90
37906;DHT22;23739;51.448;6.674;2022-12-01T09:00:08;5.90;99.90
37906;DHT22;23739;51.448;6.674;2022-12-01T09:02:34;5.90;99.90
37906;DHT22;23739;51.448;6.674;2022-12-01T09:05:00;5.90;99.90
37906;DHT22;23739;51.448;6.674;2022-12-01T09:07:26;5.80;99.90
37906;DHT22;23739;51.448;6.674;2022-12-01T09:09:51;5.90;99.90
37906;DHT22;23739;51.448;6.674;2022-12-01T09:12:17;5.90;99.90
37906;DHT22;23739;51.448;6.674;2022-12-01T09:14:43;6.00;99.90
37906;DHT22;23739;51.448;6.674;2022-12-01T09:17:14;5.80;99.90
37906;DHT22;23739;51.448;6.674;2022-12-01T09:19:40;5.90;99.90
37906;DHT22;23739;51.448;6.674;2022-12-01T09:22:06;5.90;99.90
37906;DHT22;23739;51.448;6.674;2022-12-01T09:24:32;5.90;99.90
37906;DHT22;23739;51.448;6.674;2022-12-01T09:26:58;5.90;99.90
37906;DHT22;23739;51.448;6.674;2022-12-01T09:29:24;5.90;99.90
37906;DHT22;23739;51.448;6.674;2022-12-01T09:31:50;5.80;99.90
37906;DHT22;23739;51.448;6.674;2022-12-01T09:34:17;5.90;99.90
37906;DHT22;23739;51.448;6.674;2022-12-01T09:36:43;5.90;99.90
37906;DHT22;23739;51.448;6.674;2022-12-01T09:39:11;5.80;99.90
37906;DHT22;23739;51.448;6.674;2022-12-01T09:41:43;5.90;99.90
37906;DHT22;23739;51.448;6.674;2022-12-01T09:46:57;5.90;99.90
37906;DHT22;23739;51.448;6.674;2022-12-01T09:52:15;5.90;99.90
37906;DHT22;23739;51.448;6.674;2022-12-01T09:54:41;5.90;99.90
37906;DHT22;23739;51.448;6.674;2022-12-01T09:57:12;5.80;99.90
37906;DHT22;23739;51.448;6.674;2022-12-01T09:59:39;5.80;99.90
37906;DHT22;23739;51.448;6.674;2022-12-01T10:02:21;5.80;99.90
37906;DHT22;23739;51.448;6.674;2022-12-01T10:04:48;5.80;99.90
37906;DHT22;23739;51.448;6.674;2022-12-01T10:09:52;5.90;99.90
37906;DHT22;23739;51.448;6.674;2022-12-01T10:12:20;5.90;99.90
37906;DHT22;23739;51.448;6.674;2022-12-01T10:14:48;5.90;99.90
37906;DHT22;23739;51.448;6.674;2022-12-01T10:17:20;5.90;99.90
37906;DHT22;23739;51.448;6.674;2022-12-01T10:29:57;6.00;99.90
37906;DHT22;23739;51.448;6.674;2022-12-01T10:32:28;6.00;99.90
37906;DHT22;23739;51.448;6.674;2022-12-01T10:34:56;6.00;99.90
37906;DHT22;23739;51.448;6.674;2022-12-01T10:37:23;6.10;99.90
37906;DHT22;23739;51.448;6.674;2022-12-01T10:39:51;6.00;99.90
37906;DHT22;23739;51.448;6.674;2022-12-01T10:42:33;6.10;99.90
37906;DHT22;23739;51.448;6.674;2022-12-01T10:45:01;6.10;99.90
37906;DHT22;23739;51.448;6.674;2022-12-01T10:47:27;6.10;99.90
37906;DHT22;23739;51.448;6.674;2022-12-01T10:49:53;6.10;99.90
37906;DHT22;23739;51.448;6.674;2022-12-01T10:52:31;6.10;99.90
37906;DHT22;23739;51.448;6.674;2022-12-01T10:54:57;6.10;99.90
37906;DHT22;23739;51.448;6.674;2022-12-01T10:57:23;6.10;99.90
37906;DHT22;23739;51.448;6.674;2022-12-01T10:59:51;6.10;99.90
37906;DHT22;23739;51.448;6.674;2022-12-01T11:02:20;6.10;99.90
37906;DHT22;23739;51.448;6.674;2022-12-01T11:07:19;6.20;99.90
37906;DHT22;23739;51.448;6.674;2022-12-01T11:10:01;6.10;99.90
37906;DHT22;23739;51.448;6.674;2022-12-01T11:12:27;6.10;99.90
37906;DHT22;23739;51.448;6.674;2022-12-01T11:14:53;6.10;99.90
37906;DHT22;23739;51.448;6.674;2022-12-01T11:17:36;6.10;99.90
37906;DHT22;23739;51.448;6.674;2022-12-01T11:20:25;6.10;99.90
37906;DHT22;23739;51.448;6.674;2022-12-01T11:22:49;6.00;99.90
37906;DHT22;23739;51.448;6.674;2022-12-01T11:25:18;6.00;99.90
37906;DHT22;23739;51.448;6.674;2022-12-01T11:27:48;6.00;99.90
37906;DHT22;23739;51.448;6.674;2022-12-01T11:30:24;6.00;99.90
37906;DHT22;23739;51.448;6.674;2022-12-01T11:32:51;6.00;99.90
37906;DHT22;23739;51.448;6.674;2022-12-01T11:35:18;6.10;99.90
37906;DHT22;23739;51.448;6.674;2022-12-01T11:37:45;6.10;99.90
37906;DHT22;23739;51.448;6.674;2022-12-01T11:42:38;6.10;99.90
37906;DHT22;23739;51.448;6.674;2022-12-01T11:50:26;6.20;99.90
37906;DHT22;23739;51.448;6.674;2022-12-01T11:52:52;6.20;99.90
37906;DHT22;23739;51.448;6.674;2022-12-01T11:55:19;6.20;99.90
37906;DHT22;23739;51.448;6.674;2022-12-01T11:57:46;6.20;99.90
37906;DHT22;23739;51.448;6.674;2022-12-01T12:00:19;6.20;99.90
37906;DHT22;23739;51.448;6.674;2022-12-01T12:10:16;6.10;99.90
37906;DHT22;23739;51.448;6.674;2022-12-01T12:12:49;6.20;99.90
37906;DHT22;23739;51.448;6.674;2022-12-01T12:18:10;6.10;99.90
37906;DHT22;23739;51.448;6.674;2022-12-01T12:53:20;6.10;99.90
37906;DHT22;23739;51.448;6.674;2022-12-01T12:55:48;6.20;99.90
37906;DHT22;23739;51.448;6.674;2022-12-01T12:58:22;6.20;99.90
37906;DHT22;23739;51.448;6.674;2022-12-01T13:00:58;6.20;99.90
37906;DHT22;23739;51.448;6.674;2022-12-01T13:06:01;6.20;99.90
37906;DHT22;23739;51.448;6.674;2022-12-01T13:08:40;6.30;99.90
37906;DHT22;23739;51.448;6.674;2022-12-01T13:13:38;6.20;99.90
37906;DHT22;23739;51.448;6.674;2022-12-01T13:16:05;6.20;99.90
37906;DHT22;23739;51.448;6.674;2022-12-01T13:18:35;6.10;99.90
37906;DHT22;23739;51.448;6.674;2022-12-01T13:21:02;6.10;99.90
37906;DHT22;23739;51.448;6.674;2022-12-01T13:23:28;6.20;99.90
37906;DHT22;23739;51.448;6.674;2022-12-01T13:25:56;6.20;99.90
37906;DHT22;23739;51.448;6.674;2022-12-01T13:28:23;6.30;99.90
37906;DHT22;23739;51.448;6.674;2022-12-01T13:31:12;6.30;99.90
37906;DHT22;23739;51.448;6.674;2022-12-01T13:33:52;6.40;99.90
37906;DHT22;23739;51.448;6.674;2022-12-01T13:36:19;6.40;99.90
37906;DHT22;23739;51.448;6.674;2022-12-01T13:38:51;6.40;99.90
37906;DHT22;23739;51.448;6.674;2022-12-01T13:41:22;6.30;99.90
37906;DHT22;23739;51.448;6.674;2022-12-01T13:49:02;6.30;99.90
37906;DHT22;23739;51.448;6.674;2022-12-01T13:52:14;6.30;99.90
37906;DHT22;23739;51.448;6.674;2022-12-01T13:54:57;6.40;99.90
37906;DHT22;23739;51.448;6.674;2022-12-01T13:57:10;6.40;99.90
37906;DHT22;23739;51.448;6.674;2022-12-01T13:59:37;7.40;99.90
37906;DHT22;23739;51.448;6.674;2022-12-01T14:02:20;6.30;99.90
37906;DHT22;23739;51.448;6.674;2022-12-01T14:04:46;6.30;99.90
37906;DHT22;23739;51.448;6.674;2022-12-01T14:07:13;6.30;99.90
37906;DHT22;23739;51.448;6.674;2022-12-01T14:09:39;6.30;99.90
37906;DHT22;23739;51.448;6.674;2022-12-01T14:14:38;6.30;99.90
37906;DHT22;23739;51.448;6.674;2022-12-01T14:17:04;6.30;99.90
37906;DHT22;23739;51.448;6.674;2022-12-01T14:21:59;6.10;99.90
37906;DHT22;23739;51.448;6.674;2022-12-01T14:24:35;6.10;99.90
37906;DHT22;23739;51.448;6.674;2022-12-01T14:27:04;6.10;99.90
37906;DHT22;23739;51.448;6.674;2022-12-01T14:29:36;6.10;99.90
37906;DHT22;23739;51.448;6.674;2022-12-01T14:34:34;6.00;99.90
37906;DHT22;23739;51.448;6.674;2022-12-01T14:39:56;6.10;99.90
37906;DHT22;23739;51.448;6.674;2022-12-01T14:42:30;6.10;99.90
37906;DHT22;23739;51.448;6.674;2022-12-01T14:45:24;6.10;99.90
37906;DHT22;23739;51.448;6.674;2022-12-01T14:48:04;6.10;99.90
37906;DHT22;23739;51.448;6.674;2022-12-01T14:50:37;6.10;99.90
37906;DHT22;23739;51.448;6.674;2022-12-01T14:53:07;6.00;99.90
37906;DHT22;23739;51.448;6.674;2022-12-01T14:55:37;6.10;99.90
37906;DHT22;23739;51.448;6.674;2022-12-01T14:58:06;6.00;99.90
37906;DHT22;23739;51.448;6.674;2022-12-01T15:00:36;6.00;99.90
37906;DHT22;23739;51.448;6.674;2022-12-01T15:03:05;6.00;99.90
37906;DHT22;23739;51.448;6.674;2022-12-01T15:05:36;6.00;99.90
37906;DHT22;23739;51.448;6.674;2022-12-01T15:08:12;6.00;99.90
37906;DHT22;23739;51.448;6.674;2022-12-01T15:10:47;6.00;99.90
37906;DHT22;23739;51.448;6.674;2022-12-01T15:13:18;6.00;99.90
37906;DHT22;23739;51.448;6.674;2022-12-01T15:15:49;6.00;99.90
37906;DHT22;23739;51.448;6.674;2022-12-01T15:18:22;6.00;99.90
37906;DHT22;23739;51.448;6.674;2022-12-01T15:20:49;6.00;99.90
37906;DHT22;23739;51.448;6.674;2022-12-01T15:23:15;6.00;99.90
37906;DHT22;23739;51.448;6.674;2022-12-01T15:25:42;6.00;99.90
37906;DHT22;23739;51.448;6.674;2022-12-01T15:28:15;6.00;99.90
37906;DHT22;23739;51.448;6.674;2022-12-01T15:30:41;6.00;99.90
37906;DHT22;23739;51.448;6.674;2022-12-01T15:33:18;5.90;99.90
37906;DHT22;23739;51.448;6.674;2022-12-01T15:35:44;5.90;99.90
37906;DHT22;23739;51.448;6.674;2022-12-01T15:38:14;5.90;99.90
37906;DHT22;23739;51.448;6.674;2022-12-01T15:40:45;5.90;99.90
37906;DHT22;23739;51.448;6.674;2022-12-01T15:43:21;5.90;99.90
37906;DHT22;23739;51.448;6.674;2022-12-01T15:45:55;5.90;99.90
37906;DHT22;23739;51.448;6.674;2022-12-01T15:48:39;5.90;99.90
37906;DHT22;23739;51.448;6.674;2022-12-01T15:51:19;6.00;99.90
37906;DHT22;23739;51.448;6.674;2022-12-01T15:53:50;5.90;99.90
37906;DHT22;23739;51.448;6.674;2022-12-01T15:56:23;5.90;99.90
37906;DHT22;23739;51.448;6.674;2022-12-01T15:58:49;5.90;99.90
37906;DHT22;23739;51.448;6.674;2022-12-01T16:01:16;5.90;99.90
37906;DHT22;23739;51.448;6.674;2022-12-01T16:03:48;5.90;99.90
37906;DHT22;23739;51.448;6.674;2022-12-01T16:06:15;5.90;99.90
37906;DHT22;23739;51.448;6.674;2022-12-01T16:08:50;5.80;99.90
37906;DHT22;23739;51.448;6.674;2022-12-01T16:11:17;5.80;99.90
37906;DHT22;23739;51.448;6.674;2022-12-01T16:21:33;5.80;99.90
37906;DHT22;23739;51.448;6.674;2022-12-01T16:24:10;5.80;99.90
37906;DHT22;23739;51.448;6.674;2022-12-01T16:26:37;5.80;99.90
37906;DHT22;23739;51.448;6.674;2022-12-01T16:29:20;5.70;99.90
37906;DHT22;23739;51.448;6.674;2022-12-01T16:31:47;5.80;99.90
37906;DHT22;23739;51.448;6.674;2022-12-01T16:34:14;5.80;99.90
37906;DHT22;23739;51.448;6.674;2022-12-01T16:36:40;5.80;99.90
37906;DHT22;23739;51.448;6.674;2022-12-01T16:39:06;5.80;99.90
37906;DHT22;23739;51.448;6.674;2022-12-01T16:41:32;5.70;99.90
37906;DHT22;23739;51.448;6.674;2022-12-01T16:43:59;5.70;99.90
37906;DHT22;23739;51.448;6.674;2022-12-01T16:46:25;5.60;99.90
37906;DHT22;23739;51.448;6.674;2022-12-01T16:48:51;5.70;99.90
37906;DHT22;23739;51.448;6.674;2022-12-01T16:51:16;5.60;99.90
37906;DHT22;23739;51.448;6.674;2022-12-01T16:53:42;5.70;99.90
37906;DHT22;23739;51.448;6.674;2022-12-01T16:56:11;5.60;99.90
37906;DHT22;23739;51.448;6.674;2022-12-01T16:58:37;5.60;99.90
37906;DHT22;23739;51.448;6.674;2022-12-01T17:01:03;5.60;99.90
37906;DHT22;23739;51.448;6.674;2022-12-01T17:03:29;5.60;99.90
37906;DHT22;23739;51.448;6.674;2022-12-01T17:05:57;5.60;99.90
37906;DHT22;23739;51.448;6.674;2022-12-01T17:08:23;5.60;99.90
37906;DHT22;23739;51.448;6.674;2022-12-01T17:10:49;5.60;99.90
37906;DHT22;23739;51.448;6.674;2022-12-01T17:13:15;5.70;99.90
37906;DHT22;23739;51.448;6.674;2022-12-01T17:15:42;5.60;99.90
37906;DHT22;23739;51.448;6.674;2022-12-01T17:18:08;5.70;99.90
37906;DHT22;23739;51.448;6.674;2022-12-01T17:20:34;5.70;99.90
37906;DHT22;23739;51.448;6.674;2022-12-01T17:22:59;5.70;99.90
37906;DHT22;23739;51.448;6.674;2022-12-01T17:25:25;5.70;99.90
37906;DHT22;23739;51.448;6.674;2022-12-01T17:27:51;5.70;99.90
37906;DHT22;23739;51.448;6.674;2022-12-01T17:30:17;5.80;99.90
37906;DHT22;23739;51.448;6.674;2022-12-01T17:32:42;5.90;99.90
37906;DHT22;23739;51.448;6.674;2022-12-01T17:35:08;5.80;99.90
37906;DHT22;23739;51.448;6.674;2022-12-01T17:37:34;5.80;99.90
37906;DHT22;23739;51.448;6.674;2022-12-01T17:40:03;5.70;99.90
37906;DHT22;23739;51.448;6.674;2022-12-01T17:42:31;5.70;99.90
37906;DHT22;23739;51.448;6.674;2022-12-01T17:44:57;5.70;99.90
37906;DHT22;23739;51.448;6.674;2022-12-01T17:47:23;5.70;99.90
37906;DHT22;23739;51.448;6.674;2022-12-01T17:49:48;5.60;99.90
37906;DHT22;23739;51.448;6.674;2022-12-01T17:52:14;5.70;99.90
37906;DHT22;23739;51.448;6.674;2022-12-01T17:54:40;5.70;99.90
37906;DHT22;23739;51.448;6.674;2022-12-01T17:57:05;5.70;99.90
37906;DHT22;23739;51.448;6.674;2022-12-01T17:59:32;5.70;99.90
37906;DHT22;23739;51.448;6.674;2022-12-01T18:01:58;5.70;99.90
37906;DHT22;23739;51.448;6.674;2022-12-01T18:04:24;5.70;99.90